Time;durP1;ratioP1;P1;durP2;ratioP2;P2;SDS_P1;SDS_P2;PMS_P1;PMS_P2;Temp;Humidity;BMP_temperature;BMP_pressure;BME280_temperature;BME280_humidity;BME280_pressure;Samples;Min_cycle;Max_cycle;Signal;HPM_P1;HPM_P2
2024/02/05 00:02:04;;;;;;;10.67;5.77;;;;;;;;;;6268057;28;24733;-77
2024/02/05 00:05:07;;;;;;;10.67;5.67;;;;;;;;;;6265098;28;24472;-77
2024/02/05 00:08:11;;;;;;;9.57;5.25;;;;;;;;;;6257814;28;24545;-79
2024/02/05 00:11:14;;;;;;;10.27;5.22;;;;;;;;;;6246888;28;24439;-78
2024/02/05 00:14:16;;;;;;;11.25;5.10;;;;;;;;;;6268213;28;24419;-78
2024/02/05 00:17:19;;;;;;;10.82;5.15;;;;;;;;;;6267670;28;24860;-78
2024/02/05 00:20:21;;;;;;;10.35;5.30;;;;;;;;;;6265007;28;24505;-78
2024/02/05 00:23:22;;;;;;;9.13;5.07;;;;;;;;;;6262037;28;24564;-78
2024/02/05 00:26:24;;;;;;;10.13;5.43;;;;;;;;;;6266752;28;24816;-78
2024/02/05 00:29:26;;;;;;;8.47;4.80;;;;;;;;;;6255194;28;24436;-78
2024/02/05 00:32:29;;;;;;;9.88;5.43;;;;;;;;;;6251963;28;24431;-79
2024/02/05 00:35:30;;;;;;;8.30;5.38;;;;;;;;;;6266101;28;24808;-79
2024/02/05 00:38:32;;;;;;;11.63;5.13;;;;;;;;;;6266362;28;24854;-78
2024/02/05 00:41:33;;;;;;;9.05;5.18;;;;;;;;;;6264083;28;24487;-78
2024/02/05 00:44:35;;;;;;;9.18;5.18;;;;;;;;;;6267243;28;24446;-78
2024/02/05 00:47:38;;;;;;;10.88;4.90;;;;;;;;;;6264986;28;24431;-76
2024/02/05 00:50:41;;;;;;;10.13;5.50;;;;;;;;;;6253267;28;24444;-76
2024/02/05 00:53:43;;;;;;;7.75;4.90;;;;;;;;;;6253242;28;24584;-77
2024/02/05 00:56:44;;;;;;;10.93;5.00;;;;;;;;;;6264434;28;24490;-77
2024/02/05 00:59:46;;;;;;;9.18;5.00;;;;;;;;;;6251796;28;24431;-77
2024/02/05 01:02:51;;;;;;;11.65;5.28;;;;;;;;;;6256133;28;24645;-77
2024/02/05 01:05:52;;;;;;;9.48;5.00;;;;;;;;;;6265473;28;24424;-77
2024/02/05 01:08:56;;;;;;;10.77;5.38;;;;;;;;;;6263115;28;24862;-73
2024/02/05 01:11:58;;;;;;;10.25;5.00;;;;;;;;;;6252371;28;24447;-73
2024/02/05 01:14:59;;;;;;;10.20;4.90;;;;;;;;;;6240711;28;24432;-73
2024/02/05 01:18:03;;;;;;;9.45;5.00;;;;;;;;;;6242275;28;24431;-73
2024/02/05 01:21:05;;;;;;;10.48;5.22;;;;;;;;;;6241544;28;24732;-74
2024/02/05 01:24:06;;;;;;;10.18;5.45;;;;;;;;;;6260105;28;24869;-74
2024/02/05 01:27:08;;;;;;;12.23;5.60;;;;;;;;;;6249030;28;24559;-73
2024/02/05 01:30:10;;;;;;;9.50;5.00;;;;;;;;;;6264584;28;24692;-74
2024/02/05 01:33:13;;;;;;;10.95;5.20;;;;;;;;;;6268161;28;24442;-74
2024/02/05 01:36:16;;;;;;;9.47;4.80;;;;;;;;;;6264329;28;24491;-73
2024/02/05 01:39:18;;;;;;;12.45;5.75;;;;;;;;;;6264551;28;24430;-74
2024/02/05 01:42:20;;;;;;;9.80;5.20;;;;;;;;;;6264365;28;24493;-74
2024/02/05 01:45:22;;;;;;;10.57;5.20;;;;;;;;;;6264459;28;24420;-74
2024/02/05 01:48:27;;;;;;;11.02;5.30;;;;;;;;;;6263426;28;24836;-74
2024/02/05 01:51:33;;;;;;;12.05;5.15;;;;;;;;;;6262487;28;24424;-74
2024/02/05 01:54:36;;;;;;;13.93;5.30;;;;;;;;;;6261016;28;24878;-72
2024/02/05 01:57:37;;;;;;;8.85;5.47;;;;;;;;;;6265835;28;24423;-74
2024/02/05 02:00:41;;;;;;;11.05;5.45;;;;;;;;;;6264681;28;24432;-74
2024/02/05 02:03:45;;;;;;;22.77;12.68;;;;;;;;;;6260955;28;24427;-74
2024/02/05 02:06:46;;;;;;;44.13;22.55;;;;;;;;;;6263841;28;24423;-73
2024/02/05 02:09:48;;;;;;;43.65;20.20;;;;;;;;;;6261997;28;24833;-73
2024/02/05 02:12:50;;;;;;;28.50;14.13;;;;;;;;;;6263331;28;24462;-73
2024/02/05 02:15:53;;;;;;;37.45;16.27;;;;;;;;;;6261312;28;24434;-73
2024/02/05 02:18:57;;;;;;;13.47;6.60;;;;;;;;;;6264812;28;24430;-77
2024/02/05 02:22:02;;;;;;;12.85;5.82;;;;;;;;;;6264534;28;24473;-77
2024/02/05 02:25:06;;;;;;;12.77;5.50;;;;;;;;;;6266726;28;24423;-76
2024/02/05 02:28:10;;;;;;;11.23;5.85;;;;;;;;;;6260958;28;21134;-77
2024/02/05 02:31:12;;;;;;;10.23;6.03;;;;;;;;;;6264307;28;24428;-77
2024/02/05 02:34:16;;;;;;;12.50;6.35;;;;;;;;;;6262439;28;24452;-77
2024/02/05 02:37:20;;;;;;;14.85;6.15;;;;;;;;;;6262909;28;24423;-77
2024/02/05 02:40:24;;;;;;;9.57;6.13;;;;;;;;;;6264895;28;24526;-77
2024/02/05 02:43:27;;;;;;;10.35;6.22;;;;;;;;;;6261014;28;24420;-77
2024/02/05 02:46:29;;;;;;;11.35;6.07;;;;;;;;;;6264203;28;24407;-77
2024/02/05 02:49:30;;;;;;;13.10;6.47;;;;;;;;;;6261693;28;24777;-77
2024/02/05 02:52:32;;;;;;;12.32;6.22;;;;;;;;;;6263697;28;24415;-79
2024/02/05 02:55:35;;;;;;;13.57;6.10;;;;;;;;;;6263804;28;24403;-78
2024/02/05 02:58:36;;;;;;;11.85;5.93;;;;;;;;;;6266888;28;24808;-77
2024/02/05 03:01:38;;;;;;;13.27;5.72;;;;;;;;;;6263741;28;24499;-78
2024/02/05 03:04:40;;;;;;;13.57;5.55;;;;;;;;;;6264971;28;24415;-77
2024/02/05 03:07:41;;;;;;;10.53;6.20;;;;;;;;;;6264900;28;24454;-78
2024/02/05 03:10:45;;;;;;;12.73;6.20;;;;;;;;;;6267218;28;24426;-78
2024/02/05 03:13:46;;;;;;;13.10;6.53;;;;;;;;;;6267348;28;24816;-77
2024/02/05 03:16:48;;;;;;;12.68;6.03;;;;;;;;;;6262697;28;24423;-77
2024/02/05 03:19:49;;;;;;;11.13;5.80;;;;;;;;;;6268061;28;24662;-77
2024/02/05 03:22:51;;;;;;;12.77;6.45;;;;;;;;;;6270168;28;24432;-76
2024/02/05 03:25:54;;;;;;;11.93;6.15;;;;;;;;;;6268177;28;24431;-77
2024/02/05 03:28:56;;;;;;;10.32;5.80;;;;;;;;;;6265456;28;24421;-74
2024/02/05 03:31:57;;;;;;;11.38;6.45;;;;;;;;;;6273743;28;24916;-73
2024/02/05 03:34:59;;;;;;;10.55;6.20;;;;;;;;;;6267637;28;24808;-73
2024/02/05 03:38:01;;;;;;;10.50;6.70;;;;;;;;;;6267816;28;24826;-73
2024/02/05 03:41:04;;;;;;;10.68;6.60;;;;;;;;;;6268656;28;24815;-74
2024/02/05 03:44:05;;;;;;;11.55;7.05;;;;;;;;;;6265211;28;24423;-72
2024/02/05 03:47:07;;;;;;;10.68;6.53;;;;;;;;;;6265510;28;24423;-74
2024/02/05 03:50:10;;;;;;;11.18;6.95;;;;;;;;;;6265859;28;24429;-74
2024/02/05 03:53:11;;;;;;;12.50;7.28;;;;;;;;;;6267866;28;24403;-74
2024/02/05 03:56:16;;;;;;;10.95;7.50;;;;;;;;;;6267733;28;24622;-72
2024/02/05 03:59:18;;;;;;;11.00;7.13;;;;;;;;;;6267287;28;24494;-73
2024/02/05 04:02:20;;;;;;;12.63;7.25;;;;;;;;;;6267942;28;24416;-74
2024/02/05 04:05:22;;;;;;;11.23;7.13;;;;;;;;;;6266752;28;24597;-74
2024/02/05 04:08:24;;;;;;;13.63;7.60;;;;;;;;;;6268860;28;24434;-74
2024/02/05 04:11:27;;;;;;;12.00;6.75;;;;;;;;;;6263919;28;24432;-74
2024/02/05 04:14:28;;;;;;;12.05;7.20;;;;;;;;;;6265715;28;24453;-73
2024/02/05 04:17:30;;;;;;;14.10;7.30;;;;;;;;;;6266647;28;24808;-74
2024/02/05 04:20:31;;;;;;;12.48;7.25;;;;;;;;;;6265260;28;24461;-74
2024/02/05 04:23:33;;;;;;;12.70;7.78;;;;;;;;;;6264747;28;24419;-74
2024/02/05 04:26:36;;;;;;;12.60;8.25;;;;;;;;;;6270598;28;24626;-74
2024/02/05 04:29:40;;;;;;;12.50;8.35;;;;;;;;;;6267448;28;24426;-74
2024/02/05 04:32:41;;;;;;;13.00;8.73;;;;;;;;;;6265153;28;24697;-74
2024/02/05 04:35:43;;;;;;;13.20;8.90;;;;;;;;;;6265738;28;24448;-73
2024/02/05 04:38:44;;;;;;;14.17;9.53;;;;;;;;;;6266045;28;24438;-78
2024/02/05 04:41:48;;;;;;;14.93;9.20;;;;;;;;;;6265329;28;24840;-77
2024/02/05 04:44:50;;;;;;;14.57;9.63;;;;;;;;;;6265782;28;24411;-78
2024/02/05 04:47:52;;;;;;;15.73;10.70;;;;;;;;;;6264871;28;24422;-77
2024/02/05 04:50:53;;;;;;;16.85;10.60;;;;;;;;;;6265380;28;24446;-77
2024/02/05 04:53:55;;;;;;;15.93;10.57;;;;;;;;;;6264906;28;24482;-77
2024/02/05 04:56:59;;;;;;;16.35;10.82;;;;;;;;;;6263818;28;24426;-77
2024/02/05 05:00:00;;;;;;;16.00;9.48;;;;;;;;;;6247143;28;24425;-77
2024/02/05 05:03:02;;;;;;;15.23;10.23;;;;;;;;;;6258777;28;24610;-77
2024/02/05 05:06:06;;;;;;;15.52;10.18;;;;;;;;;;6247600;28;24459;-78
2024/02/05 05:09:07;;;;;;;14.63;10.95;;;;;;;;;;6239155;28;24436;-77
2024/02/05 05:12:10;;;;;;;16.77;10.85;;;;;;;;;;6257319;28;24431;-77
2024/02/05 05:15:15;;;;;;;15.40;10.43;;;;;;;;;;6264801;28;24428;-77
2024/02/05 05:18:17;;;;;;;14.75;10.13;;;;;;;;;;6264765;28;24455;-77
2024/02/05 05:21:18;;;;;;;14.50;10.43;;;;;;;;;;6265013;28;24449;-78
2024/02/05 05:24:21;;;;;;;15.40;9.90;;;;;;;;;;6262864;28;24426;-78
2024/02/05 05:27:24;;;;;;;15.98;9.98;;;;;;;;;;6267146;28;24515;-79
2024/02/05 05:30:25;;;;;;;14.13;9.87;;;;;;;;;;6264818;28;24416;-78
2024/02/05 05:33:27;;;;;;;16.77;11.23;;;;;;;;;;6261380;28;24465;-78
2024/02/05 05:36:31;;;;;;;16.63;10.80;;;;;;;;;;6265759;28;24499;-78
2024/02/05 05:39:33;;;;;;;15.27;10.47;;;;;;;;;;6261587;28;24435;-78
2024/02/05 05:42:36;;;;;;;17.90;11.90;;;;;;;;;;6266100;28;24546;-78
2024/02/05 05:45:38;;;;;;;15.60;10.40;;;;;;;;;;6261733;28;24457;-78
2024/02/05 05:48:40;;;;;;;17.05;10.98;;;;;;;;;;6265817;28;24423;-78
2024/02/05 05:51:41;;;;;;;15.47;10.53;;;;;;;;;;6268992;28;24425;-78
2024/02/05 05:54:43;;;;;;;16.77;10.35;;;;;;;;;;6250133;28;24966;-78
2024/02/05 05:57:46;;;;;;;15.50;10.20;;;;;;;;;;6267203;28;24818;-78
2024/02/05 06:00:48;;;;;;;13.50;9.88;;;;;;;;;;6263304;28;24812;-78
2024/02/05 06:03:49;;;;;;;16.35;10.45;;;;;;;;;;6267289;28;24419;-78
2024/02/05 06:06:51;;;;;;;16.73;10.63;;;;;;;;;;6262133;28;24459;-78
2024/02/05 06:09:52;;;;;;;15.82;10.20;;;;;;;;;;6266139;28;24419;-78
2024/02/05 06:12:55;;;;;;;18.20;10.40;;;;;;;;;;6263639;28;24432;-79
2024/02/05 06:15:57;;;;;;;16.60;9.55;;;;;;;;;;6263162;28;24435;-78
2024/02/05 06:18:59;;;;;;;16.27;10.07;;;;;;;;;;6265459;28;24415;-79
2024/02/05 06:22:00;;;;;;;16.85;10.10;;;;;;;;;;6264085;28;24837;-76
2024/02/05 06:25:02;;;;;;;19.23;11.13;;;;;;;;;;6264196;28;24668;-77
2024/02/05 06:28:05;;;;;;;16.25;10.00;;;;;;;;;;6263498;28;24666;-77
2024/02/05 06:31:07;;;;;;;17.13;10.25;;;;;;;;;;6263338;28;24454;-77
2024/02/05 06:34:09;;;;;;;15.07;9.73;;;;;;;;;;6262780;28;24859;-78
2024/02/05 06:37:10;;;;;;;15.52;9.80;;;;;;;;;;6265611;28;24455;-77
2024/02/05 06:40:15;;;;;;;13.27;9.50;;;;;;;;;;6264999;28;24513;-77
2024/02/05 06:43:18;;;;;;;13.55;9.15;;;;;;;;;;6260360;28;24435;-78
2024/02/05 06:46:19;;;;;;;13.52;9.32;;;;;;;;;;6261120;28;24823;-78
2024/02/05 06:49:22;;;;;;;17.45;10.15;;;;;;;;;;6262620;28;24436;-78
2024/02/05 06:52:23;;;;;;;17.93;10.30;;;;;;;;;;6263763;28;24420;-78
2024/02/05 06:55:25;;;;;;;17.47;10.27;;;;;;;;;;6262947;28;24551;-78
2024/02/05 06:58:28;;;;;;;18.83;10.27;;;;;;;;;;6263690;28;24483;-74
2024/02/05 07:01:32;;;;;;;17.73;10.48;;;;;;;;;;6263180;28;24419;-75
2024/02/05 07:04:33;;;;;;;110.27;16.43;;;;;;;;;;6261224;28;24629;-74
2024/02/05 07:07:35;;;;;;;30.65;10.98;;;;;;;;;;6263846;28;24605;-74
2024/02/05 07:10:36;;;;;;;15.73;10.15;;;;;;;;;;6262057;28;24418;-74
2024/02/05 07:13:39;;;;;;;15.82;9.45;;;;;;;;;;6264800;28;24422;-74
2024/02/05 07:16:41;;;;;;;14.17;9.83;;;;;;;;;;6263245;28;24508;-74
2024/02/05 07:19:43;;;;;;;15.93;10.15;;;;;;;;;;6263304;28;24877;-75
2024/02/05 07:22:45;;;;;;;14.00;9.20;;;;;;;;;;6261078;28;24609;-75
2024/02/05 07:25:47;;;;;;;15.13;9.75;;;;;;;;;;6262206;28;24486;-75
2024/02/05 07:28:50;;;;;;;12.23;8.60;;;;;;;;;;6262497;28;24461;-74
2024/02/05 07:31:51;;;;;;;14.45;8.85;;;;;;;;;;6260685;28;24539;-74
2024/02/05 07:34:53;;;;;;;16.27;8.07;;;;;;;;;;6263577;28;24426;-74
2024/02/05 07:37:54;;;;;;;13.45;8.10;;;;;;;;;;6262644;28;24629;-75
2024/02/05 07:40:58;;;;;;;14.43;7.75;;;;;;;;;;6263294;28;24622;-75
2024/02/05 07:44:01;;;;;;;13.43;7.67;;;;;;;;;;6264170;28;24466;-75
2024/02/05 07:47:03;;;;;;;11.90;7.55;;;;;;;;;;6262496;28;24465;-74
2024/02/05 07:50:05;;;;;;;13.35;7.85;;;;;;;;;;6264221;28;24420;-74
2024/02/05 07:53:07;;;;;;;11.20;7.20;;;;;;;;;;6261369;28;24503;-74
2024/02/05 07:56:10;;;;;;;12.65;7.63;;;;;;;;;;6266237;28;24420;-74
2024/02/05 07:59:13;;;;;;;11.70;7.18;;;;;;;;;;6265568;28;24527;-75
2024/02/05 08:02:15;;;;;;;10.65;6.90;;;;;;;;;;6268911;28;24848;-74
2024/02/05 08:05:16;;;;;;;10.40;6.50;;;;;;;;;;6266563;28;24426;-75
2024/02/05 08:08:18;;;;;;;12.50;6.90;;;;;;;;;;6252305;28;24451;-74
2024/02/05 08:11:20;;;;;;;21.25;8.00;;;;;;;;;;6256033;28;24487;-75
2024/02/05 08:14:24;;;;;;;11.30;6.50;;;;;;;;;;6268498;28;24427;-74
2024/02/05 08:17:26;;;;;;;10.27;6.43;;;;;;;;;;6267764;28;24451;-74
2024/02/05 08:20:27;;;;;;;10.75;6.80;;;;;;;;;;6264155;28;24660;-74
2024/02/05 08:23:29;;;;;;;12.70;6.55;;;;;;;;;;6266729;28;24473;-75
2024/02/05 08:26:31;;;;;;;12.82;7.30;;;;;;;;;;6253951;28;24427;-75
2024/02/05 08:29:35;;;;;;;10.10;6.20;;;;;;;;;;6252625;28;24493;-74
2024/02/05 08:32:36;;;;;;;11.25;6.40;;;;;;;;;;6262785;28;24434;-74
2024/02/05 08:35:38;;;;;;;10.57;6.50;;;;;;;;;;6264623;28;24470;-74
2024/02/05 08:38:41;;;;;;;11.60;6.70;;;;;;;;;;6264161;28;24503;-73
2024/02/05 08:41:42;;;;;;;10.60;6.45;;;;;;;;;;6266158;28;24438;-74
2024/02/05 08:44:45;;;;;;;10.48;6.07;;;;;;;;;;6263014;28;24454;-74
2024/02/05 08:47:47;;;;;;;11.55;6.15;;;;;;;;;;6269031;28;24420;-73
2024/02/05 08:50:49;;;;;;;13.50;6.63;;;;;;;;;;6270904;28;24434;-73
2024/02/05 08:53:52;;;;;;;12.98;6.53;;;;;;;;;;6264642;28;24430;-74
2024/02/05 08:56:53;;;;;;;11.27;5.60;;;;;;;;;;6267045;28;24431;-73
2024/02/05 08:59:56;;;;;;;11.33;5.67;;;;;;;;;;6266012;28;24430;-74
2024/02/05 09:02:58;;;;;;;11.55;6.20;;;;;;;;;;6266337;28;24554;-74
2024/02/05 09:05:59;;;;;;;11.23;6.00;;;;;;;;;;6267259;28;24423;-74
2024/02/05 09:09:05;;;;;;;10.13;5.70;;;;;;;;;;6250522;28;24439;-75
2024/02/05 09:12:09;;;;;;;9.02;5.20;;;;;;;;;;6263153;28;24511;-75
2024/02/05 09:15:14;;;;;;;9.95;5.57;;;;;;;;;;6262672;28;24523;-75
2024/02/05 09:18:16;;;;;;;13.05;5.78;;;;;;;;;;6262081;28;24431;-75
2024/02/05 09:21:17;;;;;;;10.63;5.25;;;;;;;;;;6264404;28;24434;-75
2024/02/05 09:24:19;;;;;;;8.38;5.38;;;;;;;;;;6264756;28;24429;-75
2024/02/05 09:27:20;;;;;;;9.73;5.10;;;;;;;;;;6263974;28;24434;-75
2024/02/05 09:30:23;;;;;;;11.57;5.45;;;;;;;;;;6262165;28;25018;-75
2024/02/05 09:33:25;;;;;;;8.68;4.70;;;;;;;;;;6264825;28;24423;-75
2024/02/05 09:36:27;;;;;;;8.25;4.82;;;;;;;;;;6263256;28;24478;-76
2024/02/05 09:39:28;;;;;;;10.93;5.10;;;;;;;;;;6264620;28;24503;-75
2024/02/05 09:42:31;;;;;;;9.60;4.60;;;;;;;;;;6266164;28;24887;-75
2024/02/05 09:45:36;;;;;;;8.90;5.05;;;;;;;;;;6264565;28;24427;-75
2024/02/05 09:48:39;;;;;;;9.48;4.93;;;;;;;;;;6263092;28;24649;-75
2024/02/05 09:51:41;;;;;;;6.75;4.30;;;;;;;;;;6239551;28;24457;-73
2024/02/05 09:54:43;;;;;;;10.13;4.50;;;;;;;;;;6263931;28;24497;-73
2024/02/05 09:57:45;;;;;;;9.50;4.85;;;;;;;;;;6263032;28;24490;-72
2024/02/05 10:00:48;;;;;;;8.20;4.50;;;;;;;;;;6262570;28;24435;-75
2024/02/05 10:03:53;;;;;;;8.27;4.88;;;;;;;;;;6265901;28;24439;-74
2024/02/05 10:06:55;;;;;;;10.20;4.65;;;;;;;;;;6263007;28;24681;-74
2024/02/05 10:09:57;;;;;;;7.45;4.40;;;;;;;;;;6265922;28;24458;-73
2024/02/05 10:12:59;;;;;;;8.30;4.65;;;;;;;;;;6268437;28;24430;-75
2024/02/05 10:16:04;;;;;;;10.82;5.40;;;;;;;;;;6265487;28;25822;-73
2024/02/05 10:19:06;;;;;;;10.13;4.23;;;;;;;;;;6260693;28;24708;-74
2024/02/05 10:22:08;;;;;;;9.77;5.03;;;;;;;;;;6264006;28;24859;-73
2024/02/05 10:25:11;;;;;;;9.65;5.13;;;;;;;;;;6264430;28;24469;-73
2024/02/05 10:28:13;;;;;;;8.32;4.80;;;;;;;;;;6262792;28;24427;-74
2024/02/05 10:31:16;;;;;;;8.23;4.50;;;;;;;;;;6263936;28;24434;-74
2024/02/05 10:34:21;;;;;;;8.20;4.22;;;;;;;;;;6264821;28;24852;-74
2024/02/05 10:37:22;;;;;;;8.88;4.70;;;;;;;;;;6255257;28;24460;-74
2024/02/05 10:40:24;;;;;;;9.25;4.90;;;;;;;;;;6247962;28;24419;-75
2024/02/05 10:43:27;;;;;;;11.18;5.28;;;;;;;;;;6263486;28;24430;-74
2024/02/05 10:46:32;;;;;;;12.05;4.93;;;;;;;;;;6258732;28;24638;-74
2024/02/05 10:49:34;;;;;;;8.98;4.93;;;;;;;;;;6261081;28;24874;-74
2024/02/05 10:52:35;;;;;;;9.60;4.80;;;;;;;;;;6265957;28;24412;-75
2024/02/05 10:55:39;;;;;;;9.45;5.25;;;;;;;;;;6262581;28;24416;-74
2024/02/05 10:58:42;;;;;;;9.93;5.17;;;;;;;;;;6259755;28;24434;-74
2024/02/05 11:01:46;;;;;;;9.45;5.03;;;;;;;;;;6264021;28;24434;-75
2024/02/05 11:04:49;;;;;;;8.05;4.57;;;;;;;;;;6265621;28;24432;-74
2024/02/05 11:07:53;;;;;;;8.88;4.20;;;;;;;;;;6264714;28;24495;-74
2024/02/05 11:10:56;;;;;;;8.25;4.10;;;;;;;;;;6260360;28;24430;-75
2024/02/05 11:14:00;;;;;;;8.80;4.43;;;;;;;;;;6261846;28;24840;-75
2024/02/05 11:17:04;;;;;;;8.90;4.83;;;;;;;;;;6261845;28;24638;-75
2024/02/05 11:20:08;;;;;;;7.45;4.70;;;;;;;;;;6263351;28;24480;-75
2024/02/05 11:23:10;;;;;;;7.37;4.63;;;;;;;;;;6262772;28;25109;-73
2024/02/05 11:26:13;;;;;;;8.88;4.78;;;;;;;;;;6260346;28;25037;-73
2024/02/05 11:29:21;;;;;;;8.43;5.07;;;;;;;;;;6258279;28;24455;-74
2024/02/05 11:32:33;;;;;;;8.40;4.23;;;;;;;;;;6267998;28;24437;-73
2024/02/05 11:35:35;;;;;;;8.55;5.35;;;;;;;;;;6267188;28;24431;-72
2024/02/05 11:38:38;;;;;;;10.50;5.20;;;;;;;;;;6270504;28;24855;-74
2024/02/05 11:41:40;;;;;;;8.43;4.60;;;;;;;;;;6265729;28;24486;-75
2024/02/05 11:44:41;;;;;;;8.55;4.28;;;;;;;;;;6265798;28;24428;-73
2024/02/05 11:47:44;;;;;;;8.00;4.53;;;;;;;;;;6267409;28;24431;-74
2024/02/05 11:50:47;;;;;;;7.40;4.43;;;;;;;;;;6265572;28;24439;-76
2024/02/05 11:53:48;;;;;;;8.13;4.32;;;;;;;;;;6270384;28;24833;-74
2024/02/05 11:56:50;;;;;;;11.43;4.80;;;;;;;;;;6266952;28;24642;-75
2024/02/05 11:59:51;;;;;;;8.63;4.57;;;;;;;;;;6266290;28;24432;-74
2024/02/05 12:02:55;;;;;;;10.05;4.75;;;;;;;;;;6267449;28;24630;-73
2024/02/05 12:05:57;;;;;;;9.88;4.80;;;;;;;;;;6268531;28;24429;-73
2024/02/05 12:08:59;;;;;;;7.32;4.68;;;;;;;;;;6265410;28;24430;-74
2024/02/05 12:12:01;;;;;;;7.10;4.40;;;;;;;;;;6267403;28;24851;-73
2024/02/05 12:15:03;;;;;;;8.50;4.50;;;;;;;;;;6264039;28;24523;-74
2024/02/05 12:18:07;;;;;;;5.90;3.78;;;;;;;;;;6268926;28;24427;-75
2024/02/05 12:21:09;;;;;;;8.95;4.38;;;;;;;;;;6265136;28;24427;-75
2024/02/05 12:24:10;;;;;;;7.90;4.55;;;;;;;;;;6262535;28;24427;-75
2024/02/05 12:27:13;;;;;;;8.32;4.90;;;;;;;;;;6264551;28;24434;-75
2024/02/05 12:30:15;;;;;;;6.07;3.53;;;;;;;;;;6268026;28;24509;-75
2024/02/05 12:33:21;;;;;;;8.10;4.47;;;;;;;;;;6265936;28;24644;-73
2024/02/05 12:36:23;;;;;;;11.70;7.75;;;;;;;;;;6263613;28;24459;-74
2024/02/05 12:39:25;;;;;;;13.20;8.30;;;;;;;;;;6268375;28;24708;-74
2024/02/05 12:42:27;;;;;;;10.35;8.15;;;;;;;;;;6265161;28;24470;-72
2024/02/05 12:45:28;;;;;;;11.63;7.50;;;;;;;;;;6265399;28;24523;-74
2024/02/05 12:48:34;;;;;;;12.70;8.32;;;;;;;;;;6266398;28;24434;-74
2024/02/05 12:51:38;;;;;;;13.25;9.50;;;;;;;;;;6267667;28;24439;-72
2024/02/05 12:54:39;;;;;;;13.50;8.98;;;;;;;;;;6268192;28;24439;-74
2024/02/05 12:57:41;;;;;;;11.82;8.63;;;;;;;;;;6267448;28;24738;-74
2024/02/05 13:00:43;;;;;;;11.30;8.27;;;;;;;;;;6263269;28;24422;-74
2024/02/05 13:03:46;;;;;;;13.60;9.63;;;;;;;;;;6241089;28;24806;-72
2024/02/05 13:06:48;;;;;;;12.98;7.93;;;;;;;;;;6265976;28;24419;-74
2024/02/05 13:09:50;;;;;;;12.48;8.80;;;;;;;;;;6262470;28;25062;-74
2024/02/05 13:12:52;;;;;;;14.98;10.95;;;;;;;;;;6264607;28;24430;-74
2024/02/05 13:15:54;;;;;;;13.77;9.55;;;;;;;;;;6269301;28;24459;-74
2024/02/05 13:18:57;;;;;;;12.20;9.35;;;;;;;;;;6264460;28;24435;-74
2024/02/05 13:21:59;;;;;;;12.40;8.95;;;;;;;;;;6264454;28;25322;-74
2024/02/05 13:25:00;;;;;;;13.93;9.60;;;;;;;;;;6264621;28;24424;-74
2024/02/05 13:28:03;;;;;;;14.95;10.32;;;;;;;;;;6266325;28;24433;-74
2024/02/05 13:31:05;;;;;;;14.23;10.48;;;;;;;;;;6262861;28;24614;-74
2024/02/05 13:34:08;;;;;;;10.25;8.70;;;;;;;;;;6265559;28;24534;-74
2024/02/05 13:37:10;;;;;;;13.77;9.05;;;;;;;;;;6266908;28;24699;-76
2024/02/05 13:40:13;;;;;;;15.50;9.07;;;;;;;;;;6265205;28;24668;-74
2024/02/05 13:43:15;;;;;;;12.65;9.68;;;;;;;;;;6265049;28;24499;-75
2024/02/05 13:46:16;;;;;;;10.77;8.57;;;;;;;;;;6265072;28;24598;-75
2024/02/05 13:49:20;;;;;;;13.73;9.60;;;;;;;;;;6264927;28;24423;-75
2024/02/05 13:52:23;;;;;;;13.40;9.13;;;;;;;;;;6262546;28;24497;-74
2024/02/05 13:55:24;;;;;;;12.25;9.52;;;;;;;;;;6265948;28;24419;-75
2024/02/05 13:58:26;;;;;;;12.05;8.32;;;;;;;;;;6264829;28;24412;-75
2024/02/05 14:01:28;;;;;;;11.40;8.98;;;;;;;;;;6265950;28;24427;-75
2024/02/05 14:04:31;;;;;;;10.77;8.82;;;;;;;;;;6264776;28;24412;-74
2024/02/05 14:07:34;;;;;;;11.75;8.75;;;;;;;;;;6263873;28;24427;-73
2024/02/05 14:10:35;;;;;;;12.82;8.60;;;;;;;;;;6262280;28;24809;-75
2024/02/05 14:13:37;;;;;;;14.45;9.25;;;;;;;;;;6263621;28;24412;-75
2024/02/05 14:16:39;;;;;;;13.05;8.73;;;;;;;;;;6261544;28;24416;-74
2024/02/05 14:19:42;;;;;;;8.95;6.68;;;;;;;;;;6263007;28;24546;-75
2024/02/05 14:22:43;;;;;;;11.07;8.02;;;;;;;;;;6265363;28;24439;-74
2024/02/05 14:25:45;;;;;;;16.23;8.77;;;;;;;;;;6266446;28;24495;-74
2024/02/05 14:28:46;;;;;;;14.33;8.90;;;;;;;;;;6265071;28;24427;-74
2024/02/05 14:31:49;;;;;;;11.85;8.95;;;;;;;;;;6264360;28;24427;-74
2024/02/05 14:34:52;;;;;;;11.73;8.95;;;;;;;;;;6265627;28;24423;-74
2024/02/05 14:37:54;;;;;;;15.77;10.60;;;;;;;;;;6264687;28;24473;-74
2024/02/05 14:40:55;;;;;;;13.77;9.50;;;;;;;;;;6265314;28;24434;-74
2024/02/05 14:43:57;;;;;;;14.60;10.50;;;;;;;;;;6262610;28;24856;-74
2024/02/05 14:46:59;;;;;;;19.00;10.32;;;;;;;;;;6267151;28;24469;-73
2024/02/05 14:50:03;;;;;;;12.80;9.07;;;;;;;;;;6263845;28;24652;-74
2024/02/05 14:53:05;;;;;;;12.40;9.80;;;;;;;;;;6264388;28;24431;-74
2024/02/05 14:56:07;;;;;;;12.65;9.57;;;;;;;;;;6259783;28;24506;-74
2024/02/05 14:59:09;;;;;;;12.15;8.77;;;;;;;;;;6262064;28;24482;-74
2024/02/05 15:02:10;;;;;;;10.68;8.65;;;;;;;;;;6263969;28;24503;-74
2024/02/05 15:05:13;;;;;;;12.57;9.40;;;;;;;;;;6263833;28;24461;-74
2024/02/05 15:08:15;;;;;;;12.95;8.93;;;;;;;;;;6266194;28;24822;-77
2024/02/05 15:11:17;;;;;;;12.57;8.85;;;;;;;;;;6265385;28;24424;-78
2024/02/05 15:14:19;;;;;;;12.38;8.23;;;;;;;;;;6267288;28;24423;-78
2024/02/05 15:17:20;;;;;;;14.48;11.05;;;;;;;;;;6265761;28;24432;-78
2024/02/05 15:20:23;;;;;;;14.13;11.05;;;;;;;;;;6266464;28;24435;-78
2024/02/05 15:23:25;;;;;;;13.23;9.90;;;;;;;;;;6266069;28;24861;-78
2024/02/05 15:26:26;;;;;;;13.57;9.20;;;;;;;;;;6268844;28;24617;-78
2024/02/05 15:29:28;;;;;;;12.85;9.32;;;;;;;;;;6267931;28;24441;-78
2024/02/05 15:32:31;;;;;;;12.75;9.48;;;;;;;;;;6265645;28;24514;-79
2024/02/05 15:35:35;;;;;;;13.07;9.57;;;;;;;;;;6267409;28;24434;-78
2024/02/05 15:38:36;;;;;;;15.60;10.63;;;;;;;;;;6262659;28;24420;-78
2024/02/05 15:41:38;;;;;;;14.20;10.20;;;;;;;;;;6267434;28;24430;-77
2024/02/05 15:44:40;;;;;;;15.02;10.85;;;;;;;;;;6269889;28;24424;-77
2024/02/05 15:47:41;;;;;;;15.63;10.93;;;;;;;;;;6266926;28;24431;-77
2024/02/05 15:50:44;;;;;;;14.65;11.63;;;;;;;;;;6265813;28;24426;-78
2024/02/05 15:53:47;;;;;;;16.75;11.43;;;;;;;;;;6265649;28;24430;-78
2024/02/05 15:56:49;;;;;;;16.90;11.70;;;;;;;;;;6265739;28;24842;-79
2024/02/05 15:59:51;;;;;;;16.57;11.80;;;;;;;;;;6266946;28;24472;-78
2024/02/05 16:02:52;;;;;;;16.23;11.83;;;;;;;;;;6268075;28;24427;-78
2024/02/05 16:05:57;;;;;;;17.07;11.60;;;;;;;;;;6264379;28;24488;-78
2024/02/05 16:09:00;;;;;;;19.20;12.60;;;;;;;;;;6268031;28;24424;-78
2024/02/05 16:12:02;;;;;;;17.73;12.10;;;;;;;;;;6268043;28;24435;-78
2024/02/05 16:15:04;;;;;;;18.90;12.43;;;;;;;;;;6267768;28;24489;-78
2024/02/05 16:18:08;;;;;;;18.40;12.50;;;;;;;;;;6266972;28;24455;-78
2024/02/05 16:21:11;;;;;;;19.02;12.65;;;;;;;;;;6270037;28;25057;-77
2024/02/05 16:24:13;;;;;;;19.60;13.07;;;;;;;;;;6265471;28;24450;-78
2024/02/05 16:27:15;;;;;;;19.92;12.77;;;;;;;;;;6266395;28;24416;-78
2024/02/05 16:30:16;;;;;;;19.70;13.05;;;;;;;;;;6266359;28;24430;-77
2024/02/05 16:33:19;;;;;;;18.05;13.18;;;;;;;;;;6264505;28;24866;-78
2024/02/05 16:36:23;;;;;;;22.98;14.15;;;;;;;;;;6268442;28;24427;-78
2024/02/05 16:39:25;;;;;;;21.15;13.75;;;;;;;;;;6267453;28;24444;-76
2024/02/05 16:42:26;;;;;;;20.03;13.60;;;;;;;;;;6252802;28;24467;-78
2024/02/05 16:45:28;;;;;;;19.00;13.65;;;;;;;;;;6265247;28;24460;-78
2024/02/05 16:48:29;;;;;;;19.63;13.70;;;;;;;;;;6265549;28;24420;-77
2024/02/05 16:51:32;;;;;;;19.30;13.90;;;;;;;;;;6262922;28;24637;-78
2024/02/05 16:54:34;;;;;;;18.50;14.07;;;;;;;;;;6264829;28;24461;-78
2024/02/05 16:57:36;;;;;;;22.08;14.40;;;;;;;;;;6263107;28;24443;-77
2024/02/05 17:00:38;;;;;;;20.00;13.60;;;;;;;;;;6265824;28;24430;-79
2024/02/05 17:03:39;;;;;;;22.13;13.95;;;;;;;;;;6266469;28;24446;-77
2024/02/05 17:06:42;;;;;;;20.40;13.73;;;;;;;;;;6264493;28;24658;-77
2024/02/05 17:09:44;;;;;;;19.65;14.02;;;;;;;;;;6263029;28;24700;-78
2024/02/05 17:12:46;;;;;;;20.80;13.98;;;;;;;;;;6261240;28;24435;-78
2024/02/05 17:15:48;;;;;;;18.33;13.25;;;;;;;;;;6265035;28;24439;-78
2024/02/05 17:18:50;;;;;;;18.90;13.67;;;;;;;;;;6264125;28;24844;-77
2024/02/05 17:21:55;;;;;;;19.10;13.48;;;;;;;;;;6265508;28;24504;-78
2024/02/05 17:24:57;;;;;;;19.25;14.05;;;;;;;;;;6263929;28;24432;-78
2024/02/05 17:27:59;;;;;;;20.20;13.68;;;;;;;;;;6265793;28;24427;-78
2024/02/05 17:31:01;;;;;;;21.23;13.93;;;;;;;;;;6261303;28;24434;-78
2024/02/05 17:34:02;;;;;;;19.13;13.25;;;;;;;;;;6263315;28;24424;-77
2024/02/05 17:37:06;;;;;;;20.13;13.52;;;;;;;;;;6268122;28;24456;-76
2024/02/05 17:40:08;;;;;;;25.70;15.88;;;;;;;;;;6266816;28;24878;-76
2024/02/05 17:43:09;;;;;;;41.78;25.25;;;;;;;;;;6266529;28;24424;-76
2024/02/05 17:46:11;;;;;;;28.15;18.65;;;;;;;;;;6267839;28;24491;-78
2024/02/05 17:49:13;;;;;;;49.20;28.10;;;;;;;;;;6267283;28;24445;-77
2024/02/05 17:52:16;;;;;;;25.92;17.42;;;;;;;;;;6263761;28;24671;-77
2024/02/05 17:55:19;;;;;;;22.67;15.35;;;;;;;;;;6265628;28;24816;-78